sensor_id;sensor_type;location;lat;lon;timestamp;P1;durP1;ratioP1;P2;durP2;ratioP2
6013;SDS011;3035;49.928;8.410;2023-12-07T00:00:26;8.87;;;6.17;;
6013;SDS011;3035;49.928;8.410;2023-12-07T00:02:53;13.90;;;6.00;;
6013;SDS011;3035;49.928;8.410;2023-12-07T00:05:21;14.93;;;6.20;;
6013;SDS011;3035;49.928;8.410;2023-12-07T00:07:48;11.80;;;6.60;;
6013;SDS011;3035;49.928;8.410;2023-12-07T00:10:16;11.40;;;7.57;;
6013;SDS011;3035;49.928;8.410;2023-12-07T00:12:43;9.50;;;6.10;;
6013;SDS011;3035;49.928;8.410;2023-12-07T00:15:11;19.43;;;6.37;;
6013;SDS011;3035;49.928;8.410;2023-12-07T00:17:38;10.73;;;7.00;;
6013;SDS011;3035;49.928;8.410;2023-12-07T00:20:06;13.13;;;6.20;;
6013;SDS011;3035;49.928;8.410;2023-12-07T00:22:33;9.47;;;5.47;;
6013;SDS011;3035;49.928;8.410;2023-12-07T00:25:01;12.10;;;6.40;;
6013;SDS011;3035;49.928;8.410;2023-12-07T00:27:28;9.10;;;6.03;;
6013;SDS011;3035;49.928;8.410;2023-12-07T00:29:56;10.93;;;6.97;;
6013;SDS011;3035;49.928;8.410;2023-12-07T00:32:23;9.00;;;5.97;;
6013;SDS011;3035;49.928;8.410;2023-12-07T00:34:50;12.73;;;5.97;;
6013;SDS011;3035;49.928;8.410;2023-12-07T00:37:18;14.97;;;6.30;;
6013;SDS011;3035;49.928;8.410;2023-12-07T00:39:45;8.97;;;6.83;;
6013;SDS011;3035;49.928;8.410;2023-12-07T00:42:13;10.27;;;6.00;;
6013;SDS011;3035;49.928;8.410;2023-12-07T00:44:40;12.17;;;6.10;;
6013;SDS011;3035;49.928;8.410;2023-12-07T00:47:08;9.93;;;5.63;;
6013;SDS011;3035;49.928;8.410;2023-12-07T00:49:38;12.17;;;6.97;;
6013;SDS011;3035;49.928;8.410;2023-12-07T00:52:04;13.60;;;6.77;;
6013;SDS011;3035;49.928;8.410;2023-12-07T00:54:32;14.73;;;7.07;;
6013;SDS011;3035;49.928;8.410;2023-12-07T00:56:59;6.70;;;5.40;;
6013;SDS011;3035;49.928;8.410;2023-12-07T00:59:27;15.67;;;6.63;;
6013;SDS011;3035;49.928;8.410;2023-12-07T01:01:54;9.27;;;6.13;;
6013;SDS011;3035;49.928;8.410;2023-12-07T01:04:22;9.73;;;5.73;;
6013;SDS011;3035;49.928;8.410;2023-12-07T01:06:49;9.10;;;5.90;;
6013;SDS011;3035;49.928;8.410;2023-12-07T01:09:16;9.53;;;6.20;;
6013;SDS011;3035;49.928;8.410;2023-12-07T01:11:44;14.03;;;6.63;;
6013;SDS011;3035;49.928;8.410;2023-12-07T01:14:11;16.90;;;7.70;;
6013;SDS011;3035;49.928;8.410;2023-12-07T01:16:39;13.10;;;6.00;;
6013;SDS011;3035;49.928;8.410;2023-12-07T01:19:06;9.90;;;6.47;;
6013;SDS011;3035;49.928;8.410;2023-12-07T01:21:34;8.13;;;5.87;;
6013;SDS011;3035;49.928;8.410;2023-12-07T01:24:01;12.67;;;6.97;;
6013;SDS011;3035;49.928;8.410;2023-12-07T01:26:28;14.63;;;6.00;;
6013;SDS011;3035;49.928;8.410;2023-12-07T01:28:56;9.87;;;6.40;;
6013;SDS011;3035;49.928;8.410;2023-12-07T01:31:23;15.23;;;7.00;;
6013;SDS011;3035;49.928;8.410;2023-12-07T01:33:51;9.70;;;5.80;;
6013;SDS011;3035;49.928;8.410;2023-12-07T01:36:18;10.37;;;6.17;;
6013;SDS011;3035;49.928;8.410;2023-12-07T01:38:46;12.83;;;6.37;;
6013;SDS011;3035;49.928;8.410;2023-12-07T01:41:13;11.50;;;5.60;;
6013;SDS011;3035;49.928;8.410;2023-12-07T01:43:45;11.53;;;5.83;;
6013;SDS011;3035;49.928;8.410;2023-12-07T01:46:12;8.67;;;6.17;;
6013;SDS011;3035;49.928;8.410;2023-12-07T01:48:39;14.30;;;6.13;;
6013;SDS011;3035;49.928;8.410;2023-12-07T01:51:07;14.43;;;6.83;;
6013;SDS011;3035;49.928;8.410;2023-12-07T01:53:34;13.53;;;6.60;;
6013;SDS011;3035;49.928;8.410;2023-12-07T01:56:01;9.10;;;6.03;;
6013;SDS011;3035;49.928;8.410;2023-12-07T01:58:29;8.27;;;5.97;;
6013;SDS011;3035;49.928;8.410;2023-12-07T02:00:56;12.63;;;5.70;;
6013;SDS011;3035;49.928;8.410;2023-12-07T02:03:24;14.43;;;6.70;;
6013;SDS011;3035;49.928;8.410;2023-12-07T02:05:51;12.07;;;5.77;;
6013;SDS011;3035;49.928;8.410;2023-12-07T02:08:19;7.53;;;5.60;;
6013;SDS011;3035;49.928;8.410;2023-12-07T02:10:46;12.80;;;5.87;;
6013;SDS011;3035;49.928;8.410;2023-12-07T02:13:13;7.63;;;5.03;;
6013;SDS011;3035;49.928;8.410;2023-12-07T02:15:41;14.10;;;8.00;;
6013;SDS011;3035;49.928;8.410;2023-12-07T02:18:10;9.83;;;6.13;;
6013;SDS011;3035;49.928;8.410;2023-12-07T02:20:47;10.23;;;6.30;;
6013;SDS011;3035;49.928;8.410;2023-12-07T02:23:15;20.47;;;6.43;;
6013;SDS011;3035;49.928;8.410;2023-12-07T02:25:44;11.50;;;7.00;;
6013;SDS011;3035;49.928;8.410;2023-12-07T02:28:11;11.40;;;6.57;;
6013;SDS011;3035;49.928;8.410;2023-12-07T02:30:39;10.17;;;5.90;;
6013;SDS011;3035;49.928;8.410;2023-12-07T02:33:06;10.23;;;6.13;;
6013;SDS011;3035;49.928;8.410;2023-12-07T02:35:34;8.47;;;6.23;;
6013;SDS011;3035;49.928;8.410;2023-12-07T02:38:02;10.93;;;5.43;;
6013;SDS011;3035;49.928;8.410;2023-12-07T02:40:29;12.47;;;6.60;;
6013;SDS011;3035;49.928;8.410;2023-12-07T02:42:57;9.67;;;5.90;;
6013;SDS011;3035;49.928;8.410;2023-12-07T02:45:24;10.00;;;6.13;;
6013;SDS011;3035;49.928;8.410;2023-12-07T02:47:52;11.53;;;6.37;;
6013;SDS011;3035;49.928;8.410;2023-12-07T02:50:19;8.67;;;5.83;;
6013;SDS011;3035;49.928;8.410;2023-12-07T02:52:46;8.60;;;6.30;;
6013;SDS011;3035;49.928;8.410;2023-12-07T02:55:14;9.93;;;5.57;;
6013;SDS011;3035;49.928;8.410;2023-12-07T02:57:41;12.03;;;7.33;;
6013;SDS011;3035;49.928;8.410;2023-12-07T03:00:09;22.50;;;6.77;;
6013;SDS011;3035;49.928;8.410;2023-12-07T03:02:37;13.57;;;6.30;;
6013;SDS011;3035;49.928;8.410;2023-12-07T03:05:04;7.73;;;6.03;;
6013;SDS011;3035;49.928;8.410;2023-12-07T03:07:32;11.23;;;6.17;;
6013;SDS011;3035;49.928;8.410;2023-12-07T03:09:59;8.33;;;6.37;;
6013;SDS011;3035;49.928;8.410;2023-12-07T03:12:27;9.03;;;6.03;;
6013;SDS011;3035;49.928;8.410;2023-12-07T03:14:54;10.33;;;7.00;;
6013;SDS011;3035;49.928;8.410;2023-12-07T03:17:22;8.53;;;5.80;;
6013;SDS011;3035;49.928;8.410;2023-12-07T03:19:49;11.53;;;5.77;;
6013;SDS011;3035;49.928;8.410;2023-12-07T03:22:17;16.20;;;6.07;;
6013;SDS011;3035;49.928;8.410;2023-12-07T03:24:46;11.23;;;6.37;;
6013;SDS011;3035;49.928;8.410;2023-12-07T03:27:11;9.67;;;6.40;;
6013;SDS011;3035;49.928;8.410;2023-12-07T03:29:39;13.53;;;5.80;;
6013;SDS011;3035;49.928;8.410;2023-12-07T03:32:06;8.30;;;5.67;;
6013;SDS011;3035;49.928;8.410;2023-12-07T03:34:34;12.20;;;6.23;;
6013;SDS011;3035;49.928;8.410;2023-12-07T03:37:01;11.33;;;6.20;;
6013;SDS011;3035;49.928;8.410;2023-12-07T03:39:29;17.33;;;6.40;;
6013;SDS011;3035;49.928;8.410;2023-12-07T03:41:56;9.23;;;5.97;;
6013;SDS011;3035;49.928;8.410;2023-12-07T03:44:23;9.33;;;5.73;;
6013;SDS011;3035;49.928;8.410;2023-12-07T03:46:52;7.30;;;5.70;;
6013;SDS011;3035;49.928;8.410;2023-12-07T03:49:19;11.23;;;6.07;;
6013;SDS011;3035;49.928;8.410;2023-12-07T03:51:48;12.70;;;6.13;;
6013;SDS011;3035;49.928;8.410;2023-12-07T03:54:16;12.97;;;6.70;;
6013;SDS011;3035;49.928;8.410;2023-12-07T03:56:44;7.70;;;6.10;;
6013;SDS011;3035;49.928;8.410;2023-12-07T03:59:11;12.80;;;6.17;;
6013;SDS011;3035;49.928;8.410;2023-12-07T04:01:39;14.63;;;7.33;;
6013;SDS011;3035;49.928;8.410;2023-12-07T04:04:06;9.73;;;6.57;;
6013;SDS011;3035;49.928;8.410;2023-12-07T04:06:34;10.90;;;6.57;;
6013;SDS011;3035;49.928;8.410;2023-12-07T04:09:01;8.83;;;5.93;;
6013;SDS011;3035;49.928;8.410;2023-12-07T04:11:29;10.30;;;6.67;;
6013;SDS011;3035;49.928;8.410;2023-12-07T04:13:56;8.93;;;5.97;;
6013;SDS011;3035;49.928;8.410;2023-12-07T04:16:23;12.97;;;6.23;;
6013;SDS011;3035;49.928;8.410;2023-12-07T04:18:51;15.40;;;6.43;;
6013;SDS011;3035;49.928;8.410;2023-12-07T04:21:18;17.63;;;6.77;;
6013;SDS011;3035;49.928;8.410;2023-12-07T04:23:46;9.30;;;5.80;;
6013;SDS011;3035;49.928;8.410;2023-12-07T04:26:13;15.20;;;7.10;;
6013;SDS011;3035;49.928;8.410;2023-12-07T04:28:41;9.57;;;6.47;;
6013;SDS011;3035;49.928;8.410;2023-12-07T04:31:08;11.80;;;6.77;;
6013;SDS011;3035;49.928;8.410;2023-12-07T04:33:35;10.40;;;6.67;;
6013;SDS011;3035;49.928;8.410;2023-12-07T04:36:03;9.70;;;6.17;;
6013;SDS011;3035;49.928;8.410;2023-12-07T04:38:31;9.40;;;5.80;;
6013;SDS011;3035;49.928;8.410;2023-12-07T04:40:58;13.83;;;6.60;;
6013;SDS011;3035;49.928;8.410;2023-12-07T04:43:26;8.53;;;5.50;;
6013;SDS011;3035;49.928;8.410;2023-12-07T04:45:53;10.37;;;5.83;;
6013;SDS011;3035;49.928;8.410;2023-12-07T04:48:20;12.33;;;6.70;;
6013;SDS011;3035;49.928;8.410;2023-12-07T04:50:48;9.63;;;6.30;;
6013;SDS011;3035;49.928;8.410;2023-12-07T04:53:15;8.40;;;6.13;;
6013;SDS011;3035;49.928;8.410;2023-12-07T04:55:43;11.60;;;6.10;;
6013;SDS011;3035;49.928;8.410;2023-12-07T04:58:10;8.20;;;5.93;;
6013;SDS011;3035;49.928;8.410;2023-12-07T05:00:38;13.37;;;6.70;;
6013;SDS011;3035;49.928;8.410;2023-12-07T05:03:05;12.33;;;6.50;;
6013;SDS011;3035;49.928;8.410;2023-12-07T05:05:32;13.33;;;6.70;;
6013;SDS011;3035;49.928;8.410;2023-12-07T05:08:00;11.27;;;6.30;;
6013;SDS011;3035;49.928;8.410;2023-12-07T05:10:28;13.83;;;6.70;;
6013;SDS011;3035;49.928;8.410;2023-12-07T05:12:55;14.07;;;6.40;;
6013;SDS011;3035;49.928;8.410;2023-12-07T05:15:23;14.90;;;7.63;;
6013;SDS011;3035;49.928;8.410;2023-12-07T05:17:50;8.90;;;6.10;;
6013;SDS011;3035;49.928;8.410;2023-12-07T05:20:18;10.13;;;6.27;;
6013;SDS011;3035;49.928;8.410;2023-12-07T05:22:45;12.33;;;6.57;;
6013;SDS011;3035;49.928;8.410;2023-12-07T05:25:13;9.50;;;5.50;;
6013;SDS011;3035;49.928;8.410;2023-12-07T05:27:40;11.83;;;5.80;;
6013;SDS011;3035;49.928;8.410;2023-12-07T05:30:08;8.37;;;5.97;;
6013;SDS011;3035;49.928;8.410;2023-12-07T05:32:35;9.07;;;5.60;;
6013;SDS011;3035;49.928;8.410;2023-12-07T05:35:03;12.13;;;5.63;;
6013;SDS011;3035;49.928;8.410;2023-12-07T05:37:31;8.93;;;6.33;;
6013;SDS011;3035;49.928;8.410;2023-12-07T05:39:58;13.97;;;6.43;;
6013;SDS011;3035;49.928;8.410;2023-12-07T05:42:25;15.10;;;6.20;;
6013;SDS011;3035;49.928;8.410;2023-12-07T05:44:53;12.37;;;7.30;;
6013;SDS011;3035;49.928;8.410;2023-12-07T05:47:20;10.70;;;6.50;;
6013;SDS011;3035;49.928;8.410;2023-12-07T05:49:48;13.23;;;7.00;;
6013;SDS011;3035;49.928;8.410;2023-12-07T05:52:15;13.80;;;6.90;;
6013;SDS011;3035;49.928;8.410;2023-12-07T05:54:43;14.50;;;7.17;;
6013;SDS011;3035;49.928;8.410;2023-12-07T05:57:10;15.77;;;7.80;;
6013;SDS011;3035;49.928;8.410;2023-12-07T05:59:38;9.63;;;6.90;;
6013;SDS011;3035;49.928;8.410;2023-12-07T06:02:05;9.80;;;7.03;;
6013;SDS011;3035;49.928;8.410;2023-12-07T06:04:32;13.30;;;8.27;;
6013;SDS011;3035;49.928;8.410;2023-12-07T06:07:00;13.73;;;7.40;;
6013;SDS011;3035;49.928;8.410;2023-12-07T06:09:27;12.27;;;8.30;;
6013;SDS011;3035;49.928;8.410;2023-12-07T06:11:55;17.57;;;8.70;;
6013;SDS011;3035;49.928;8.410;2023-12-07T06:14:22;12.23;;;7.80;;
6013;SDS011;3035;49.928;8.410;2023-12-07T06:16:49;12.77;;;9.00;;
6013;SDS011;3035;49.928;8.410;2023-12-07T06:19:17;14.27;;;7.43;;
6013;SDS011;3035;49.928;8.410;2023-12-07T06:21:45;11.70;;;7.93;;
6013;SDS011;3035;49.928;8.410;2023-12-07T06:24:12;16.00;;;7.57;;
6013;SDS011;3035;49.928;8.410;2023-12-07T06:26:39;15.50;;;7.80;;
6013;SDS011;3035;49.928;8.410;2023-12-07T06:29:07;11.00;;;7.40;;
6013;SDS011;3035;49.928;8.410;2023-12-07T06:31:34;12.60;;;8.50;;
6013;SDS011;3035;49.928;8.410;2023-12-07T06:34:02;10.50;;;7.03;;
6013;SDS011;3035;49.928;8.410;2023-12-07T06:36:29;10.87;;;7.50;;
6013;SDS011;3035;49.928;8.410;2023-12-07T06:38:56;15.90;;;8.73;;
6013;SDS011;3035;49.928;8.410;2023-12-07T06:41:24;14.63;;;8.77;;
6013;SDS011;3035;49.928;8.410;2023-12-07T06:43:51;17.07;;;10.17;;
6013;SDS011;3035;49.928;8.410;2023-12-07T06:46:19;23.23;;;11.80;;
6013;SDS011;3035;49.928;8.410;2023-12-07T06:48:46;19.70;;;10.73;;
6013;SDS011;3035;49.928;8.410;2023-12-07T06:51:14;17.10;;;8.77;;
6013;SDS011;3035;49.928;8.410;2023-12-07T06:53:41;14.70;;;8.57;;
6013;SDS011;3035;49.928;8.410;2023-12-07T06:56:09;14.33;;;7.73;;
6013;SDS011;3035;49.928;8.410;2023-12-07T06:58:36;12.93;;;7.40;;
6013;SDS011;3035;49.928;8.410;2023-12-07T07:01:03;16.97;;;8.00;;
6013;SDS011;3035;49.928;8.410;2023-12-07T07:03:31;12.50;;;6.83;;
6013;SDS011;3035;49.928;8.410;2023-12-07T07:05:58;11.43;;;7.10;;
6013;SDS011;3035;49.928;8.410;2023-12-07T07:08:26;9.47;;;6.60;;
6013;SDS011;3035;49.928;8.410;2023-12-07T07:10:53;14.30;;;7.87;;
6013;SDS011;3035;49.928;8.410;2023-12-07T07:13:21;24.57;;;7.73;;
6013;SDS011;3035;49.928;8.410;2023-12-07T07:15:48;14.83;;;7.50;;
6013;SDS011;3035;49.928;8.410;2023-12-07T07:18:15;9.63;;;6.87;;
6013;SDS011;3035;49.928;8.410;2023-12-07T07:20:43;10.83;;;7.10;;
6013;SDS011;3035;49.928;8.410;2023-12-07T07:23:10;13.23;;;7.03;;
6013;SDS011;3035;49.928;8.410;2023-12-07T07:25:38;12.57;;;7.73;;
6013;SDS011;3035;49.928;8.410;2023-12-07T07:28:05;20.80;;;8.10;;
6013;SDS011;3035;49.928;8.410;2023-12-07T07:30:33;15.40;;;7.70;;
6013;SDS011;3035;49.928;8.410;2023-12-07T07:33:00;13.67;;;7.77;;
6013;SDS011;3035;49.928;8.410;2023-12-07T07:35:28;11.87;;;7.40;;
6013;SDS011;3035;49.928;8.410;2023-12-07T07:37:55;14.30;;;7.23;;
6013;SDS011;3035;49.928;8.410;2023-12-07T07:40:22;12.20;;;7.40;;
6013;SDS011;3035;49.928;8.410;2023-12-07T07:42:50;13.80;;;7.63;;
6013;SDS011;3035;49.928;8.410;2023-12-07T07:45:17;14.80;;;7.73;;
6013;SDS011;3035;49.928;8.410;2023-12-07T07:47:45;13.83;;;8.13;;
6013;SDS011;3035;49.928;8.410;2023-12-07T07:50:12;12.33;;;8.70;;
6013;SDS011;3035;49.928;8.410;2023-12-07T07:52:40;15.57;;;8.10;;
6013;SDS011;3035;49.928;8.410;2023-12-07T07:55:07;13.60;;;8.93;;
6013;SDS011;3035;49.928;8.410;2023-12-07T07:57:35;12.13;;;8.10;;
6013;SDS011;3035;49.928;8.410;2023-12-07T08:00:02;19.40;;;8.67;;
6013;SDS011;3035;49.928;8.410;2023-12-07T08:02:30;14.97;;;8.73;;
6013;SDS011;3035;49.928;8.410;2023-12-07T08:04:57;17.40;;;9.83;;
6013;SDS011;3035;49.928;8.410;2023-12-07T08:07:25;13.93;;;8.03;;
6013;SDS011;3035;49.928;8.410;2023-12-07T08:09:52;19.10;;;10.10;;
6013;SDS011;3035;49.928;8.410;2023-12-07T08:12:20;14.47;;;8.60;;
6013;SDS011;3035;49.928;8.410;2023-12-07T08:14:47;17.10;;;8.73;;
6013;SDS011;3035;49.928;8.410;2023-12-07T08:17:14;17.53;;;9.17;;
6013;SDS011;3035;49.928;8.410;2023-12-07T08:19:42;14.60;;;9.50;;
6013;SDS011;3035;49.928;8.410;2023-12-07T08:22:09;13.17;;;8.80;;
6013;SDS011;3035;49.928;8.410;2023-12-07T08:24:38;17.87;;;10.03;;
6013;SDS011;3035;49.928;8.410;2023-12-07T08:27:04;24.00;;;9.87;;
6013;SDS011;3035;49.928;8.410;2023-12-07T08:29:32;17.20;;;10.20;;
6013;SDS011;3035;49.928;8.410;2023-12-07T08:31:59;15.57;;;8.40;;
6013;SDS011;3035;49.928;8.410;2023-12-07T08:34:27;12.57;;;8.23;;
6013;SDS011;3035;49.928;8.410;2023-12-07T08:36:54;16.47;;;9.33;;
6013;SDS011;3035;49.928;8.410;2023-12-07T08:39:21;26.10;;;9.40;;
6013;SDS011;3035;49.928;8.410;2023-12-07T08:41:49;16.03;;;9.67;;
6013;SDS011;3035;49.928;8.410;2023-12-07T08:44:16;14.50;;;8.57;;
6013;SDS011;3035;49.928;8.410;2023-12-07T08:46:44;14.80;;;8.90;;
6013;SDS011;3035;49.928;8.410;2023-12-07T08:49:11;18.90;;;9.30;;
6013;SDS011;3035;49.928;8.410;2023-12-07T08:51:39;15.77;;;8.93;;
6013;SDS011;3035;49.928;8.410;2023-12-07T08:54:06;15.80;;;8.77;;
6013;SDS011;3035;49.928;8.410;2023-12-07T08:56:34;13.90;;;7.37;;
6013;SDS011;3035;49.928;8.410;2023-12-07T08:59:08;14.97;;;8.00;;
6013;SDS011;3035;49.928;8.410;2023-12-07T09:01:35;17.17;;;8.80;;
6013;SDS011;3035;49.928;8.410;2023-12-07T09:04:03;13.63;;;7.43;;
6013;SDS011;3035;49.928;8.410;2023-12-07T09:06:31;16.83;;;8.83;;
6013;SDS011;3035;49.928;8.410;2023-12-07T09:08:59;15.43;;;7.40;;
6013;SDS011;3035;49.928;8.410;2023-12-07T09:11:27;13.10;;;7.90;;
6013;SDS011;3035;49.928;8.410;2023-12-07T09:13:55;26.63;;;8.87;;
6013;SDS011;3035;49.928;8.410;2023-12-07T09:16:24;27.13;;;6.90;;
6013;SDS011;3035;49.928;8.410;2023-12-07T09:18:51;14.23;;;7.80;;
6013;SDS011;3035;49.928;8.410;2023-12-07T09:21:19;13.23;;;7.23;;
6013;SDS011;3035;49.928;8.410;2023-12-07T09:23:47;13.83;;;8.17;;
6013;SDS011;3035;49.928;8.410;2023-12-07T09:26:16;15.50;;;8.13;;
6013;SDS011;3035;49.928;8.410;2023-12-07T09:28:43;16.80;;;8.47;;
6013;SDS011;3035;49.928;8.410;2023-12-07T09:31:12;16.70;;;8.93;;
6013;SDS011;3035;49.928;8.410;2023-12-07T09:33:40;16.13;;;8.60;;
6013;SDS011;3035;49.928;8.410;2023-12-07T09:36:08;20.33;;;8.13;;
6013;SDS011;3035;49.928;8.410;2023-12-07T09:38:36;14.80;;;8.93;;
6013;SDS011;3035;49.928;8.410;2023-12-07T09:41:04;27.73;;;8.23;;
6013;SDS011;3035;49.928;8.410;2023-12-07T09:43:32;25.80;;;9.83;;
6013;SDS011;3035;49.928;8.410;2023-12-07T09:46:00;19.17;;;9.97;;
6013;SDS011;3035;49.928;8.410;2023-12-07T09:48:29;17.50;;;8.10;;
6013;SDS011;3035;49.928;8.410;2023-12-07T09:50:56;15.80;;;9.50;;
6013;SDS011;3035;49.928;8.410;2023-12-07T09:53:24;19.47;;;8.97;;
6013;SDS011;3035;49.928;8.410;2023-12-07T09:55:51;20.30;;;10.70;;
6013;SDS011;3035;49.928;8.410;2023-12-07T09:58:19;21.90;;;10.60;;
6013;SDS011;3035;49.928;8.410;2023-12-07T10:00:47;15.17;;;9.13;;
6013;SDS011;3035;49.928;8.410;2023-12-07T10:03:20;21.10;;;10.73;;
6013;SDS011;3035;49.928;8.410;2023-12-07T10:05:53;22.43;;;9.90;;
6013;SDS011;3035;49.928;8.410;2023-12-07T10:08:26;19.90;;;8.97;;
6013;SDS011;3035;49.928;8.410;2023-12-07T10:13:29;22.10;;;10.40;;
6013;SDS011;3035;49.928;8.410;2023-12-07T10:18:31;24.80;;;11.13;;
6013;SDS011;3035;49.928;8.410;2023-12-07T10:20:59;23.07;;;11.47;;
6013;SDS011;3035;49.928;8.410;2023-12-07T10:23:26;21.90;;;10.47;;
6013;SDS011;3035;49.928;8.410;2023-12-07T10:25:54;23.10;;;11.93;;
6013;SDS011;3035;49.928;8.410;2023-12-07T10:28:21;18.80;;;11.40;;
6013;SDS011;3035;49.928;8.410;2023-12-07T10:30:49;23.57;;;11.40;;
6013;SDS011;3035;49.928;8.410;2023-12-07T10:33:16;22.40;;;11.80;;
6013;SDS011;3035;49.928;8.410;2023-12-07T10:35:44;21.50;;;10.67;;
6013;SDS011;3035;49.928;8.410;2023-12-07T10:38:11;19.37;;;10.13;;
6013;SDS011;3035;49.928;8.410;2023-12-07T10:40:38;23.30;;;12.33;;
6013;SDS011;3035;49.928;8.410;2023-12-07T10:43:06;21.20;;;11.93;;
6013;SDS011;3035;49.928;8.410;2023-12-07T10:45:34;20.97;;;10.77;;
6013;SDS011;3035;49.928;8.410;2023-12-07T10:48:03;24.37;;;13.03;;
6013;SDS011;3035;49.928;8.410;2023-12-07T10:50:29;20.53;;;11.00;;
6013;SDS011;3035;49.928;8.410;2023-12-07T10:52:57;20.57;;;11.77;;
6013;SDS011;3035;49.928;8.410;2023-12-07T10:55:27;23.80;;;12.17;;
6013;SDS011;3035;49.928;8.410;2023-12-07T10:57:55;20.30;;;11.43;;
6013;SDS011;3035;49.928;8.410;2023-12-07T11:00:22;19.23;;;11.27;;
6013;SDS011;3035;49.928;8.410;2023-12-07T11:02:51;20.77;;;11.57;;
6013;SDS011;3035;49.928;8.410;2023-12-07T11:05:19;22.53;;;12.23;;
6013;SDS011;3035;49.928;8.410;2023-12-07T11:07:51;20.73;;;11.83;;
6013;SDS011;3035;49.928;8.410;2023-12-07T11:10:23;31.83;;;13.30;;
6013;SDS011;3035;49.928;8.410;2023-12-07T11:12:52;22.37;;;11.03;;
6013;SDS011;3035;49.928;8.410;2023-12-07T11:15:18;30.53;;;13.67;;
6013;SDS011;3035;49.928;8.410;2023-12-07T11:17:50;25.47;;;13.63;;
6013;SDS011;3035;49.928;8.410;2023-12-07T11:20:18;29.93;;;15.27;;
6013;SDS011;3035;49.928;8.410;2023-12-07T11:22:47;27.23;;;14.50;;
6013;SDS011;3035;49.928;8.410;2023-12-07T11:25:14;32.00;;;14.87;;
6013;SDS011;3035;49.928;8.410;2023-12-07T11:27:43;31.80;;;16.17;;
6013;SDS011;3035;49.928;8.410;2023-12-07T11:30:09;41.30;;;18.33;;
6013;SDS011;3035;49.928;8.410;2023-12-07T11:32:37;43.00;;;19.77;;
6013;SDS011;3035;49.928;8.410;2023-12-07T11:35:05;47.17;;;18.97;;
6013;SDS011;3035;49.928;8.410;2023-12-07T11:38:00;39.67;;;18.80;;
6013;SDS011;3035;49.928;8.410;2023-12-07T11:40:18;50.40;;;20.33;;
6013;SDS011;3035;49.928;8.410;2023-12-07T11:42:46;43.97;;;17.57;;
6013;SDS011;3035;49.928;8.410;2023-12-07T11:45:13;37.47;;;17.40;;
6013;SDS011;3035;49.928;8.410;2023-12-07T11:47:41;37.13;;;17.20;;
6013;SDS011;3035;49.928;8.410;2023-12-07T11:50:08;35.43;;;15.67;;
6013;SDS011;3035;49.928;8.410;2023-12-07T11:52:36;39.90;;;15.80;;
6013;SDS011;3035;49.928;8.410;2023-12-07T11:55:04;49.77;;;17.93;;
6013;SDS011;3035;49.928;8.410;2023-12-07T11:57:31;36.63;;;16.23;;
6013;SDS011;3035;49.928;8.410;2023-12-07T11:59:59;38.60;;;16.07;;
6013;SDS011;3035;49.928;8.410;2023-12-07T12:02:26;36.70;;;16.23;;
6013;SDS011;3035;49.928;8.410;2023-12-07T12:04:54;39.80;;;16.87;;
6013;SDS011;3035;49.928;8.410;2023-12-07T12:07:21;38.90;;;16.80;;
6013;SDS011;3035;49.928;8.410;2023-12-07T12:09:49;38.60;;;16.97;;
6013;SDS011;3035;49.928;8.410;2023-12-07T12:12:16;34.00;;;16.37;;
6013;SDS011;3035;49.928;8.410;2023-12-07T12:14:44;31.37;;;14.17;;
6013;SDS011;3035;49.928;8.410;2023-12-07T12:17:14;36.23;;;16.47;;
6013;SDS011;3035;49.928;8.410;2023-12-07T12:19:39;39.10;;;16.07;;
6013;SDS011;3035;49.928;8.410;2023-12-07T12:22:06;36.90;;;16.83;;
6013;SDS011;3035;49.928;8.410;2023-12-07T12:24:35;42.33;;;18.37;;
6013;SDS011;3035;49.928;8.410;2023-12-07T12:27:02;41.77;;;15.77;;
6013;SDS011;3035;49.928;8.410;2023-12-07T12:29:29;38.17;;;15.70;;
6013;SDS011;3035;49.928;8.410;2023-12-07T12:31:57;37.43;;;16.13;;
6013;SDS011;3035;49.928;8.410;2023-12-07T12:34:24;49.30;;;17.13;;
6013;SDS011;3035;49.928;8.410;2023-12-07T12:36:55;37.50;;;16.50;;
6013;SDS011;3035;49.928;8.410;2023-12-07T12:39:19;43.13;;;16.10;;
6013;SDS011;3035;49.928;8.410;2023-12-07T12:41:47;34.80;;;16.87;;
6013;SDS011;3035;49.928;8.410;2023-12-07T12:44:14;41.27;;;16.60;;
6013;SDS011;3035;49.928;8.410;2023-12-07T12:46:41;39.43;;;16.40;;
6013;SDS011;3035;49.928;8.410;2023-12-07T12:49:09;43.10;;;17.93;;
6013;SDS011;3035;49.928;8.410;2023-12-07T12:51:36;42.30;;;16.30;;
6013;SDS011;3035;49.928;8.410;2023-12-07T12:54:04;48.63;;;16.90;;
6013;SDS011;3035;49.928;8.410;2023-12-07T12:56:31;43.87;;;18.17;;
6013;SDS011;3035;49.928;8.410;2023-12-07T12:58:59;42.13;;;17.10;;
6013;SDS011;3035;49.928;8.410;2023-12-07T13:01:26;48.37;;;18.93;;
6013;SDS011;3035;49.928;8.410;2023-12-07T13:03:54;44.63;;;18.47;;
6013;SDS011;3035;49.928;8.410;2023-12-07T13:06:21;42.40;;;16.97;;
6013;SDS011;3035;49.928;8.410;2023-12-07T13:08:49;38.87;;;16.93;;
6013;SDS011;3035;49.928;8.410;2023-12-07T13:11:17;44.80;;;16.23;;
6013;SDS011;3035;49.928;8.410;2023-12-07T13:13:44;44.77;;;17.47;;
6013;SDS011;3035;49.928;8.410;2023-12-07T13:16:11;43.67;;;16.53;;
6013;SDS011;3035;49.928;8.410;2023-12-07T13:18:38;39.50;;;16.70;;
6013;SDS011;3035;49.928;8.410;2023-12-07T13:21:06;42.03;;;16.77;;
6013;SDS011;3035;49.928;8.410;2023-12-07T13:23:33;48.60;;;16.83;;
6013;SDS011;3035;49.928;8.410;2023-12-07T13:26:01;46.40;;;17.00;;
6013;SDS011;3035;49.928;8.410;2023-12-07T13:28:28;35.30;;;15.07;;
6013;SDS011;3035;49.928;8.410;2023-12-07T13:30:56;42.60;;;15.50;;
6013;SDS011;3035;49.928;8.410;2023-12-07T13:33:23;57.33;;;17.93;;
6013;SDS011;3035;49.928;8.410;2023-12-07T13:35:51;44.03;;;15.03;;
6013;SDS011;3035;49.928;8.410;2023-12-07T13:38:19;51.27;;;17.10;;
6013;SDS011;3035;49.928;8.410;2023-12-07T13:40:47;47.63;;;15.30;;
6013;SDS011;3035;49.928;8.410;2023-12-07T13:43:15;41.53;;;16.17;;
6013;SDS011;3035;49.928;8.410;2023-12-07T13:45:43;34.83;;;15.10;;
6013;SDS011;3035;49.928;8.410;2023-12-07T13:48:11;41.70;;;16.00;;
6013;SDS011;3035;49.928;8.410;2023-12-07T13:50:39;39.90;;;15.13;;
6013;SDS011;3035;49.928;8.410;2023-12-07T13:53:07;50.67;;;18.40;;
6013;SDS011;3035;49.928;8.410;2023-12-07T13:55:36;47.90;;;16.47;;
6013;SDS011;3035;49.928;8.410;2023-12-07T13:58:04;42.80;;;15.77;;
6013;SDS011;3035;49.928;8.410;2023-12-07T14:00:33;50.23;;;16.60;;
6013;SDS011;3035;49.928;8.410;2023-12-07T14:03:00;50.37;;;18.40;;
6013;SDS011;3035;49.928;8.410;2023-12-07T14:05:27;39.33;;;15.37;;
6013;SDS011;3035;49.928;8.410;2023-12-07T14:07:55;44.00;;;15.97;;
6013;SDS011;3035;49.928;8.410;2023-12-07T14:10:22;33.87;;;14.50;;
6013;SDS011;3035;49.928;8.410;2023-12-07T14:12:49;35.53;;;14.70;;
6013;SDS011;3035;49.928;8.410;2023-12-07T14:15:17;36.23;;;15.13;;
6013;SDS011;3035;49.928;8.410;2023-12-07T14:17:44;38.53;;;16.20;;
6013;SDS011;3035;49.928;8.410;2023-12-07T14:20:12;41.67;;;16.80;;
6013;SDS011;3035;49.928;8.410;2023-12-07T14:22:39;41.60;;;16.57;;
6013;SDS011;3035;49.928;8.410;2023-12-07T14:25:07;34.70;;;13.90;;
6013;SDS011;3035;49.928;8.410;2023-12-07T14:27:34;40.70;;;15.50;;
6013;SDS011;3035;49.928;8.410;2023-12-07T14:30:02;38.70;;;15.60;;
6013;SDS011;3035;49.928;8.410;2023-12-07T14:32:29;39.50;;;14.93;;
6013;SDS011;3035;49.928;8.410;2023-12-07T14:34:57;45.83;;;17.40;;
6013;SDS011;3035;49.928;8.410;2023-12-07T14:37:24;45.77;;;15.90;;
6013;SDS011;3035;49.928;8.410;2023-12-07T14:39:52;39.60;;;15.03;;
6013;SDS011;3035;49.928;8.410;2023-12-07T14:42:19;47.63;;;17.50;;
6013;SDS011;3035;49.928;8.410;2023-12-07T14:44:47;46.60;;;17.47;;
6013;SDS011;3035;49.928;8.410;2023-12-07T14:47:15;48.93;;;16.33;;
6013;SDS011;3035;49.928;8.410;2023-12-07T14:49:42;41.23;;;16.27;;
6013;SDS011;3035;49.928;8.410;2023-12-07T14:52:10;53.57;;;17.47;;
6013;SDS011;3035;49.928;8.410;2023-12-07T14:54:37;54.90;;;17.57;;
6013;SDS011;3035;49.928;8.410;2023-12-07T14:57:05;62.40;;;18.57;;
6013;SDS011;3035;49.928;8.410;2023-12-07T14:59:34;59.00;;;17.70;;
6013;SDS011;3035;49.928;8.410;2023-12-07T15:02:02;52.00;;;18.43;;
6013;SDS011;3035;49.928;8.410;2023-12-07T15:04:31;48.27;;;18.83;;